createdAt,value
2023-05-17T00:02:02.695Z,97267.34
2023-05-17T00:04:29.628Z,97265.81
2023-05-17T00:06:56.546Z,97278.50
2023-05-17T00:09:23.462Z,97280.28
2023-05-17T00:11:50.427Z,97267.34
2023-05-17T00:14:17.365Z,97273.66
2023-05-17T00:16:44.305Z,97275.75
2023-05-17T00:19:11.349Z,97277.84
2023-05-17T00:21:38.407Z,97278.69
2023-05-17T00:24:05.748Z,97290.31
2023-05-17T00:26:34.216Z,97282.72
2023-05-17T00:29:01.408Z,97286.03
2023-05-17T00:31:28.319Z,97288.37
2023-05-17T00:33:55.427Z,97294.00
2023-05-17T00:36:22.401Z,97287.47
2023-05-17T00:38:50.319Z,97283.44
2023-05-17T00:41:18.269Z,97280.03
2023-05-17T00:43:45.127Z,97278.47
2023-05-17T00:46:12.066Z,97273.75
2023-05-17T00:48:39.275Z,97272.19
2023-05-17T00:51:06.463Z,97268.88
2023-05-17T00:53:33.878Z,97265.94
2023-05-17T00:56:01.139Z,97262.84
2023-05-17T00:58:28.115Z,97259.59
2023-05-17T01:00:55.255Z,97253.88
2023-05-17T01:03:25.049Z,97257.31
2023-05-17T01:05:52.106Z,97266.06
2023-05-17T01:08:19.068Z,97273.25
2023-05-17T01:11:24.867Z,97276.81
2023-05-17T01:14:24.448Z,97273.75
2023-05-17T01:16:57.507Z,97278.34
2023-05-17T01:19:24.446Z,97275.28
2023-05-17T01:22:04.202Z,97276.31
2023-05-17T01:24:39.432Z,97285.56
2023-05-17T01:27:07.078Z,97268.38
2023-05-17T01:29:36.123Z,97270.47
2023-05-17T01:32:03.834Z,97271.13
2023-05-17T01:34:30.748Z,97269.03
2023-05-17T01:36:58.369Z,97270.47
2023-05-17T01:39:25.515Z,97258.28
2023-05-17T01:42:28.317Z,97269.84
2023-05-17T01:45:03.905Z,97256.25
2023-05-17T01:47:38.342Z,97252.25
2023-05-17T01:50:06.958Z,97256.13
2023-05-17T01:52:56.635Z,97258.28
2023-05-17T01:55:27.711Z,97262.16
2023-05-17T01:57:56.554Z,97254.00
2023-05-17T02:00:26.041Z,97262.69
2023-05-17T02:02:52.988Z,97254.63
2023-05-17T02:05:19.924Z,97255.78
2023-05-17T02:07:46.861Z,97258.28
2023-05-17T02:10:13.960Z,97256.75
2023-05-17T02:12:41.095Z,97255.19
2023-05-17T02:15:11.239Z,97246.34
2023-05-17T02:17:39.720Z,97256.63
2023-05-17T02:20:08.754Z,97249.53
2023-05-17T02:22:35.943Z,97254.56
2023-05-17T02:25:02.823Z,97261.31
2023-05-17T02:27:29.758Z,97258.84
2023-05-17T02:29:56.727Z,97261.06
2023-05-17T02:32:23.730Z,97264.56
2023-05-17T02:34:50.719Z,97274.13
2023-05-17T02:37:17.571Z,97280.03
2023-05-17T02:39:44.448Z,97291.09
2023-05-17T02:42:11.409Z,97283.72
2023-05-17T02:44:38.313Z,97287.28
2023-05-17T02:47:05.649Z,97284.62
2023-05-17T02:49:32.577Z,97295.03
2023-05-17T02:52:01.018Z,97303.41
2023-05-17T02:54:27.938Z,97291.25
2023-05-17T02:56:54.800Z,97302.75
2023-05-17T02:59:22.417Z,97298.09
2023-05-17T03:01:50.332Z,97310.19
2023-05-17T03:04:17.636Z,97310.78
2023-05-17T03:06:44.514Z,97310.78
2023-05-17T03:09:11.457Z,97318.31
2023-05-17T03:11:38.355Z,97327.38
2023-05-17T03:14:05.219Z,97332.19
2023-05-17T03:16:32.124Z,97333.47
2023-05-17T03:18:59.249Z,97344.69
2023-05-17T03:21:26.347Z,97349.84
2023-05-17T03:23:53.298Z,97341.16
2023-05-17T03:26:20.187Z,97351.69
2023-05-17T03:28:47.166Z,97349.37
2023-05-17T03:31:14.148Z,97349.94
2023-05-17T03:33:41.219Z,97364.53
2023-05-17T03:36:08.443Z,97361.53
2023-05-17T03:38:35.792Z,97368.56
2023-05-17T03:41:03.428Z,97362.59
2023-05-17T03:43:30.687Z,97361.44
2023-05-17T03:45:57.700Z,97370.87
2023-05-17T03:48:24.835Z,97381.06
2023-05-17T03:50:51.877Z,97386.87
2023-05-17T03:53:18.783Z,97396.31
2023-05-17T03:55:45.887Z,97386.56
2023-05-17T03:58:12.766Z,97393.59
2023-05-17T04:00:39.685Z,97391.97
2023-05-17T04:03:06.605Z,97383.38
2023-05-17T04:05:33.608Z,97402.16
2023-05-17T04:08:00.706Z,97402.22
2023-05-17T04:10:27.694Z,97397.62
2023-05-17T04:12:54.571Z,97405.84
2023-05-17T04:15:22.011Z,97405.25
2023-05-17T04:17:49.055Z,97410.81
2023-05-17T04:20:15.980Z,97396.63
2023-05-17T04:22:42.915Z,97397.31
2023-05-17T04:25:10.061Z,97405.94
2023-05-17T04:27:38.408Z,97402.47
2023-05-17T04:30:06.267Z,97410.81
2023-05-17T04:32:34.368Z,97405.06
2023-05-17T04:35:01.457Z,97416.28
2023-05-17T04:37:28.358Z,97412.84
2023-05-17T04:39:55.282Z,97419.19
2023-05-17T04:42:22.356Z,97432.37
2023-05-17T04:44:49.230Z,97431.47
2023-05-17T04:47:16.125Z,97428.94
2023-05-17T04:49:43.463Z,97425.50
2023-05-17T04:52:10.562Z,97441.06
2023-05-17T04:54:37.631Z,97438.00
2023-05-17T04:57:04.671Z,97446.75
2023-05-17T04:59:31.562Z,97457.00
2023-05-17T05:01:58.417Z,97463.09
2023-05-17T05:04:25.801Z,97447.06
2023-05-17T05:06:52.690Z,97452.50
2023-05-17T05:09:19.638Z,97455.34
2023-05-17T05:11:46.532Z,97447.66
2023-05-17T05:14:13.437Z,97458.78
2023-05-17T05:16:40.323Z,97449.38
2023-05-17T05:19:11.718Z,97461.19
2023-05-17T05:21:38.821Z,97448.59
2023-05-17T05:24:06.035Z,97455.13
2023-05-17T05:26:33.152Z,97459.19
2023-05-17T05:29:00.086Z,97466.81
2023-05-17T05:31:26.976Z,97481.22
2023-05-17T05:33:54.069Z,97483.94
2023-05-17T05:36:21.016Z,97483.03
2023-05-17T05:38:48.934Z,97487.41
2023-05-17T05:41:15.844Z,97485.97
2023-05-17T05:43:42.722Z,97482.31
2023-05-17T05:46:09.577Z,97479.72
2023-05-17T05:48:39.811Z,97485.63
2023-05-17T05:51:06.785Z,97484.75
2023-05-17T05:53:33.769Z,97491.13
2023-05-17T05:56:01.368Z,97492.22
2023-05-17T05:58:47.094Z,97496.59
2023-05-17T06:01:14.104Z,97511.59
2023-05-17T06:03:40.983Z,97499.31
2023-05-17T06:06:08.046Z,97515.06
2023-05-17T06:08:34.972Z,97530.75
2023-05-17T06:11:01.884Z,97526.41
2023-05-17T06:13:28.784Z,97528.41
2023-05-17T06:15:55.997Z,97528.03
2023-05-17T06:18:23.007Z,97539.37
2023-05-17T06:20:49.954Z,97537.81
2023-05-17T06:23:17.134Z,97546.06
2023-05-17T06:25:44.043Z,97552.28
2023-05-17T06:28:12.117Z,97546.56
2023-05-17T06:30:39.024Z,97550.41
2023-05-17T06:33:06.056Z,97544.16
2023-05-17T06:35:40.787Z,97532.13
2023-05-17T06:38:19.906Z,97540.25
2023-05-17T06:40:46.823Z,97549.72
2023-05-17T06:43:13.720Z,97551.62
2023-05-17T06:45:40.803Z,97563.38
2023-05-17T06:48:07.866Z,97568.25
2023-05-17T06:50:34.866Z,97580.31
2023-05-17T06:53:01.766Z,97583.09
2023-05-17T06:55:31.006Z,97584.25
2023-05-17T06:58:00.270Z,97572.25
2023-05-17T07:00:27.640Z,97570.72
2023-05-17T07:02:54.850Z,97569.56
2023-05-17T07:05:27.377Z,97569.97
2023-05-17T07:07:54.690Z,97571.09
2023-05-17T07:10:21.659Z,97577.00
2023-05-17T07:12:48.744Z,97580.72
2023-05-17T07:15:15.921Z,97597.81
2023-05-17T07:17:42.859Z,97591.44
2023-05-17T07:20:10.506Z,97603.38
2023-05-17T07:22:37.983Z,97603.06
2023-05-17T07:25:05.767Z,97605.06
2023-05-17T07:27:32.702Z,97604.53
2023-05-17T07:29:59.615Z,97587.84
2023-05-17T07:32:26.545Z,97605.91
2023-05-17T07:34:53.449Z,97609.22
2023-05-17T07:37:21.094Z,97591.97
2023-05-17T07:39:49.016Z,97603.09
2023-05-17T07:42:16.382Z,97599.81
2023-05-17T07:44:43.306Z,97598.31
2023-05-17T07:47:10.189Z,97612.38
2023-05-17T07:49:41.233Z,97620.34
2023-05-17T07:52:08.694Z,97613.50
2023-05-17T07:54:35.728Z,97616.06
2023-05-17T07:57:02.642Z,97613.53
2023-05-17T07:59:30.587Z,97616.97
2023-05-17T08:01:57.598Z,97620.63
2023-05-17T08:04:26.858Z,97632.28
2023-05-17T08:07:01.573Z,97622.84
2023-05-17T08:10:01.859Z,97621.56
2023-05-17T08:12:32.256Z,97611.09
2023-05-17T08:14:59.301Z,97621.03
2023-05-17T08:17:27.997Z,97626.12
2023-05-17T08:19:54.974Z,97637.50
2023-05-17T08:22:23.770Z,97646.94
2023-05-17T08:24:51.513Z,97640.19
2023-05-17T08:27:18.690Z,97646.81
2023-05-17T08:30:15.175Z,97650.19
2023-05-17T08:32:51.102Z,97658.50
2023-05-17T08:35:18.123Z,97660.69
2023-05-17T08:37:45.040Z,97664.38
2023-05-17T08:40:15.045Z,97652.06
2023-05-17T08:42:42.208Z,97662.13
2023-05-17T08:45:10.483Z,97663.78
2023-05-17T08:47:38.035Z,97668.78
2023-05-17T08:50:06.200Z,97670.16
2023-05-17T08:52:33.891Z,97663.47
2023-05-17T08:55:08.322Z,97661.28
2023-05-17T08:57:39.470Z,97678.34
2023-05-17T09:00:12.672Z,97684.97
2023-05-17T09:02:43.094Z,97681.38
2023-05-17T09:05:10.964Z,97672.12
2023-05-17T09:07:38.244Z,97687.09
2023-05-17T09:10:06.126Z,97677.72
2023-05-17T09:12:36.855Z,97679.75
2023-05-17T09:15:17.139Z,97681.31
2023-05-17T09:17:44.570Z,97679.16
2023-05-17T09:20:11.836Z,97690.69
2023-05-17T09:22:38.904Z,97699.22
2023-05-17T09:25:06.226Z,97700.91
2023-05-17T09:27:33.182Z,97700.63
2023-05-17T09:30:00.245Z,97707.25
2023-05-17T09:32:28.620Z,97709.66
2023-05-17T09:34:59.184Z,97709.03
2023-05-17T09:37:26.665Z,97714.09
2023-05-17T09:39:55.414Z,97719.75
2023-05-17T09:42:26.605Z,97723.19
2023-05-17T09:45:00.585Z,97725.00
2023-05-17T09:47:29.175Z,97725.88
2023-05-17T09:49:58.665Z,97721.25
2023-05-17T09:52:26.154Z,97726.44
2023-05-17T09:54:57.672Z,97728.25
2023-05-17T09:57:28.865Z,97716.38
2023-05-17T09:59:57.566Z,97715.88
2023-05-17T10:02:31.290Z,97711.56
2023-05-17T10:04:58.669Z,97709.63
2023-05-17T10:07:27.069Z,97705.31
2023-05-17T10:09:56.254Z,97699.56
2023-05-17T10:12:24.351Z,97704.78
2023-05-17T10:14:56.107Z,97694.75
2023-05-17T10:17:24.076Z,97719.00
2023-05-17T10:19:51.808Z,97727.34
2023-05-17T10:22:23.444Z,97722.56
2023-05-17T10:24:51.882Z,97727.66
2023-05-17T10:27:19.058Z,97723.69
2023-05-17T10:29:49.899Z,97724.06
2023-05-17T10:32:19.656Z,97731.63
2023-05-17T10:34:54.470Z,97739.94
2023-05-17T10:37:32.468Z,97725.22
2023-05-17T10:39:59.491Z,97730.66
2023-05-17T10:42:27.833Z,97736.34
2023-05-17T10:44:54.807Z,97745.59
2023-05-17T10:47:24.361Z,97749.56
2023-05-17T10:49:52.060Z,97751.44
2023-05-17T10:52:21.742Z,97769.53
2023-05-17T10:54:50.328Z,97768.72
2023-05-17T10:57:36.051Z,97776.69
2023-05-17T11:00:20.466Z,97772.09
2023-05-17T11:02:49.195Z,97776.13
2023-05-17T11:05:27.626Z,97784.44
2023-05-17T11:08:17.402Z,97782.25
2023-05-17T11:11:14.811Z,97781.69
2023-05-17T11:13:50.574Z,97778.56
2023-05-17T11:16:18.188Z,97775.56
2023-05-17T11:18:57.718Z,97775.47
2023-05-17T11:21:28.642Z,97769.50
2023-05-17T11:24:00.047Z,97759.13
2023-05-17T11:26:40.754Z,97764.44
2023-05-17T11:29:10.646Z,97748.09
2023-05-17T11:31:44.103Z,97751.94
2023-05-17T11:34:11.976Z,97761.66
2023-05-17T11:36:55.686Z,97759.84
2023-05-17T11:39:24.671Z,97780.84
2023-05-17T11:41:53.847Z,97770.41
2023-05-17T11:44:25.500Z,97780.12
2023-05-17T11:46:53.720Z,97790.41
2023-05-17T11:49:34.817Z,97777.34
2023-05-17T11:52:02.436Z,97801.34
2023-05-17T11:54:30.310Z,97806.00
2023-05-17T11:57:08.780Z,97796.53
2023-05-17T11:59:40.326Z,97810.44
2023-05-17T12:02:07.485Z,97814.78
2023-05-17T12:04:38.467Z,97805.16
2023-05-17T12:07:08.074Z,97808.13
2023-05-17T12:09:38.829Z,97806.25
2023-05-17T12:12:06.303Z,97810.44
2023-05-17T12:14:38.391Z,97806.34
2023-05-17T12:17:09.298Z,97820.81
2023-05-17T12:22:18.906Z,97822.47
2023-05-17T12:24:48.251Z,97827.22
2023-05-17T12:27:15.212Z,97816.56
2023-05-17T12:29:44.878Z,97811.56
2023-05-17T12:38:04.164Z,97832.72
2023-05-17T12:40:31.513Z,97812.22
2023-05-17T12:45:48.280Z,97836.37
2023-05-17T12:51:15.220Z,97839.56
2023-05-17T12:53:52.801Z,97832.12
2023-05-17T12:56:30.001Z,97856.75
2023-05-17T12:59:12.465Z,97838.78
2023-05-17T13:01:45.083Z,97826.66
2023-05-17T13:04:15.309Z,97845.16
2023-05-17T13:06:58.356Z,97839.47
2023-05-17T13:09:29.066Z,97838.44
2023-05-17T13:15:07.853Z,97838.72
2023-05-17T13:17:37.316Z,97838.72
2023-05-17T13:20:06.447Z,97850.28
2023-05-17T13:22:34.789Z,97856.78
2023-05-17T13:25:03.687Z,97856.03
2023-05-17T13:27:30.618Z,97858.06
2023-05-17T13:29:58.067Z,97862.62
2023-05-17T13:32:25.277Z,97876.81
2023-05-17T13:34:52.256Z,97872.34
2023-05-17T13:37:19.135Z,97860.16
2023-05-17T13:39:46.128Z,97862.62
2023-05-17T13:42:13.924Z,97866.16
2023-05-17T13:44:40.917Z,97864.41
2023-05-17T13:47:15.214Z,97864.28
2023-05-17T13:49:42.808Z,97872.69
2023-05-17T13:52:09.786Z,97882.75
2023-05-17T13:54:37.235Z,97871.22
2023-05-17T13:57:05.731Z,97864.00
2023-05-17T13:59:32.870Z,97872.34
2023-05-17T14:01:59.861Z,97888.34
2023-05-17T14:04:26.998Z,97868.53
2023-05-17T14:06:55.174Z,97883.41
2023-05-17T14:09:22.410Z,97878.81
2023-05-17T14:11:49.323Z,97876.53
2023-05-17T14:14:16.245Z,97879.03
2023-05-17T14:16:43.164Z,97873.09
2023-05-17T14:19:10.305Z,97884.19
2023-05-17T14:21:37.239Z,97872.63
2023-05-17T14:24:04.241Z,97868.97
2023-05-17T14:26:31.359Z,97881.81
2023-05-17T14:28:58.670Z,97877.41
2023-05-17T14:31:26.630Z,97880.00
2023-05-17T14:33:53.705Z,97895.91
2023-05-17T14:36:20.755Z,97889.47
2023-05-17T14:38:48.740Z,97895.50
2023-05-17T14:41:15.684Z,97896.09
2023-05-17T14:43:42.587Z,97903.09
2023-05-17T14:46:09.465Z,97908.22
2023-05-17T14:48:37.093Z,97892.41
2023-05-17T14:51:04.232Z,97901.50
2023-05-17T14:53:31.186Z,97914.47
2023-05-17T14:55:59.130Z,97919.66
2023-05-17T14:58:26.393Z,97912.75
2023-05-17T15:01:06.130Z,97921.66
2023-05-17T15:03:35.011Z,97918.41
2023-05-17T15:06:05.072Z,97917.28
2023-05-17T15:08:34.797Z,97914.25
2023-05-17T15:11:02.212Z,97913.37
2023-05-17T15:13:29.108Z,97924.97
2023-05-17T15:15:56.007Z,97934.50
2023-05-17T15:18:23.012Z,97932.19
2023-05-17T15:20:49.980Z,97930.56
2023-05-17T15:23:16.913Z,97936.37
2023-05-17T15:25:43.828Z,97922.53
2023-05-17T15:28:10.904Z,97937.72
2023-05-17T15:30:37.856Z,97945.63
2023-05-17T15:33:04.902Z,97942.84
2023-05-17T15:35:31.938Z,97918.00
2023-05-17T15:37:59.851Z,97927.63
2023-05-17T15:40:26.805Z,97932.47
2023-05-17T15:42:53.686Z,97945.44
2023-05-17T15:45:21.637Z,97941.44
2023-05-17T15:47:49.674Z,97945.56
2023-05-17T15:50:16.905Z,97949.41
2023-05-17T15:52:43.771Z,97953.66
2023-05-17T15:55:11.196Z,97936.59
2023-05-17T15:57:38.075Z,97967.22
2023-05-17T16:00:05.706Z,97957.22
2023-05-17T16:02:32.664Z,97959.69
2023-05-17T16:05:03.386Z,97963.22
2023-05-17T16:07:31.472Z,97957.28
2023-05-17T16:09:58.591Z,97965.41
2023-05-17T16:12:25.465Z,97965.53
2023-05-17T16:14:52.316Z,97961.34
2023-05-17T16:17:19.329Z,97965.25
2023-05-17T16:19:46.455Z,97960.59
2023-05-17T16:22:14.189Z,97969.94
2023-05-17T16:24:42.026Z,97970.12
2023-05-17T16:27:08.946Z,97977.59
2023-05-17T16:29:40.144Z,97984.25
2023-05-17T16:32:08.493Z,97975.19
2023-05-17T16:34:35.961Z,97974.72
2023-05-17T16:37:04.936Z,97967.97
2023-05-17T16:39:32.847Z,97961.84
2023-05-17T16:41:59.786Z,97959.47
2023-05-17T16:44:26.713Z,97953.53
2023-05-17T16:46:53.662Z,97955.47
2023-05-17T16:49:20.643Z,97966.87
2023-05-17T16:51:47.590Z,97966.09
2023-05-17T16:54:14.531Z,97963.72
2023-05-17T16:56:41.500Z,97958.91
2023-05-17T16:59:08.638Z,97977.12
2023-05-17T17:01:35.540Z,97969.44
2023-05-17T17:04:03.510Z,97982.69
2023-05-17T17:06:31.656Z,97975.53
2023-05-17T17:08:58.675Z,97983.91
2023-05-17T17:11:26.370Z,97975.06
2023-05-17T17:13:53.629Z,97991.25
2023-05-17T17:16:21.360Z,97986.25
2023-05-17T17:18:49.861Z,97984.72
2023-05-17T17:21:17.089Z,97983.72
2023-05-17T17:23:44.621Z,97994.19
2023-05-17T17:26:11.612Z,98008.22
2023-05-17T17:28:38.862Z,97991.50
2023-05-17T17:31:09.253Z,98006.59
2023-05-17T17:33:36.306Z,98011.50
2023-05-17T17:36:03.775Z,98014.84
2023-05-17T17:38:31.303Z,98002.19
2023-05-17T17:40:58.156Z,98000.81
2023-05-17T17:43:25.066Z,98014.16
2023-05-17T17:45:52.103Z,98010.59
2023-05-17T17:48:19.026Z,98007.62
2023-05-17T17:50:45.911Z,98002.44
2023-05-17T17:53:12.917Z,98009.31
2023-05-17T17:55:39.795Z,98010.28
2023-05-17T17:58:07.022Z,98013.69
2023-05-17T18:00:34.117Z,98000.78
2023-05-17T18:03:01.183Z,98015.84
2023-05-17T18:05:28.233Z,98028.53
2023-05-17T18:07:55.558Z,98025.44
2023-05-17T18:10:22.448Z,98032.16
2023-05-17T18:12:51.498Z,98052.25
2023-05-17T18:15:18.728Z,98049.37
2023-05-17T18:17:46.065Z,98046.88
2023-05-17T18:20:13.078Z,98059.31
2023-05-17T18:22:40.025Z,98073.00
2023-05-17T18:25:07.171Z,98063.78
2023-05-17T18:27:35.417Z,98061.00
2023-05-17T18:30:02.891Z,98055.44
2023-05-17T18:32:30.029Z,98053.09
2023-05-17T18:34:57.062Z,98062.34
2023-05-17T18:37:23.925Z,98067.72
2023-05-17T18:39:50.789Z,98066.38
2023-05-17T18:42:17.655Z,98070.16
2023-05-17T18:44:44.660Z,98066.88
2023-05-17T18:47:12.249Z,98069.94
2023-05-17T18:49:42.468Z,98078.50
2023-05-17T18:52:09.327Z,98071.88
2023-05-17T18:54:36.219Z,98076.53
2023-05-17T18:57:03.185Z,98070.75
2023-05-17T18:59:30.132Z,98091.00
2023-05-17T19:01:57.213Z,98093.13
2023-05-17T19:04:24.220Z,98094.38
2023-05-17T19:06:51.228Z,98080.81
2023-05-17T19:09:18.346Z,98094.56
2023-05-17T19:11:45.223Z,98090.16
2023-05-17T19:14:14.793Z,98094.91
2023-05-17T19:16:42.102Z,98092.56
2023-05-17T19:19:09.284Z,98107.12
2023-05-17T19:21:36.342Z,98100.38
2023-05-17T19:24:05.731Z,98102.91
2023-05-17T19:26:32.600Z,98103.87
2023-05-17T19:28:59.542Z,98111.34
2023-05-17T19:31:26.488Z,98109.00
2023-05-17T19:33:53.446Z,98119.94
2023-05-17T19:36:20.265Z,98119.78
2023-05-17T19:38:46.999Z,98120.78
2023-05-17T19:41:13.885Z,98127.34
2023-05-17T19:43:40.881Z,98127.53
2023-05-17T19:46:10.796Z,98124.03
2023-05-17T19:48:38.544Z,98124.78
2023-05-17T19:51:05.515Z,98117.75
2023-05-17T19:53:43.912Z,98117.75
2023-05-17T19:56:18.236Z,98114.62
2023-05-17T19:58:45.142Z,98128.66
2023-05-17T20:01:12.118Z,98130.69
2023-05-17T20:03:40.759Z,98131.78
2023-05-17T20:06:11.215Z,98133.31
2023-05-17T20:08:38.076Z,98154.56
2023-05-17T20:11:06.212Z,98150.16
2023-05-17T20:13:34.336Z,98148.25
2023-05-17T20:16:01.525Z,98139.53
2023-05-17T20:18:30.198Z,98154.50
2023-05-17T20:20:57.355Z,98151.66
2023-05-17T20:23:24.235Z,98149.22
2023-05-17T20:25:51.232Z,98155.72
2023-05-17T20:28:18.333Z,98155.13
2023-05-17T20:30:46.174Z,98156.69
2023-05-17T20:33:13.246Z,98149.91
2023-05-17T20:35:40.255Z,98154.28
2023-05-17T20:38:07.145Z,98149.91
2023-05-17T20:40:34.220Z,98145.81
2023-05-17T20:43:01.173Z,98140.56
2023-05-17T20:45:29.945Z,98141.06
2023-05-17T20:47:57.192Z,98152.50
2023-05-17T20:50:24.223Z,98147.72
2023-05-17T20:52:51.408Z,98154.63
2023-05-17T20:55:18.299Z,98161.16
2023-05-17T20:57:45.191Z,98159.41
2023-05-17T21:00:12.776Z,98165.41
2023-05-17T21:02:39.763Z,98174.34
2023-05-17T21:05:06.867Z,98161.03
2023-05-17T21:07:35.010Z,98178.31
2023-05-17T21:10:01.887Z,98180.53
2023-05-17T21:12:28.800Z,98181.53
2023-05-17T21:15:14.494Z,98192.84
2023-05-17T21:17:42.550Z,98201.81
2023-05-17T21:20:09.966Z,98193.63
2023-05-17T21:22:37.725Z,98197.69
2023-05-17T21:25:05.385Z,98196.91
2023-05-17T21:27:34.056Z,98200.72
2023-05-17T21:30:01.720Z,98188.97
2023-05-17T21:32:28.706Z,98195.66
2023-05-17T21:34:55.815Z,98190.00
2023-05-17T21:37:22.701Z,98192.91
2023-05-17T21:39:49.571Z,98196.41
2023-05-17T21:42:16.630Z,98195.66
2023-05-17T21:44:43.477Z,98188.31
2023-05-17T21:47:10.431Z,98190.19
2023-05-17T21:49:37.420Z,98188.78
2023-05-17T21:52:04.585Z,98187.41
2023-05-17T21:54:31.430Z,98194.56
2023-05-17T21:56:58.281Z,98200.00
2023-05-17T21:59:25.286Z,98192.53
2023-05-17T22:01:55.121Z,98196.84
2023-05-17T22:04:22.075Z,98191.81
2023-05-17T22:06:48.963Z,98198.06
2023-05-17T22:09:15.893Z,98202.06
2023-05-17T22:11:42.843Z,98197.63
2023-05-17T22:14:09.755Z,98195.81
2023-05-17T22:16:37.039Z,98189.66
2023-05-17T22:19:04.559Z,98200.28
2023-05-17T22:21:32.303Z,98191.22
2023-05-17T22:23:59.574Z,98190.72
2023-05-17T22:26:27.893Z,98196.97
2023-05-17T22:28:55.914Z,98192.78
2023-05-17T22:31:23.018Z,98192.78
2023-05-17T22:33:50.574Z,98194.31
2023-05-17T22:36:17.970Z,98190.62
2023-05-17T22:38:44.858Z,98182.06
2023-05-17T22:41:12.501Z,98189.88
2023-05-17T22:43:39.781Z,98183.53
2023-05-17T22:46:06.862Z,98178.31
2023-05-17T22:48:33.770Z,98181.34
2023-05-17T22:51:03.671Z,98181.00
2023-05-17T22:53:31.273Z,98161.47
2023-05-17T22:55:58.165Z,98186.81
2023-05-17T22:58:25.093Z,98180.37
2023-05-17T23:00:52.469Z,98170.22
2023-05-17T23:03:19.930Z,98177.19
2023-05-17T23:05:46.932Z,98181.16
2023-05-17T23:08:15.704Z,98174.56
2023-05-17T23:10:46.046Z,98174.31
2023-05-17T23:13:14.006Z,98171.87
2023-05-17T23:15:46.853Z,98174.25
2023-05-17T23:18:13.901Z,98180.25
2023-05-17T23:20:42.228Z,98174.34
2023-05-17T23:23:09.111Z,98176.88
2023-05-17T23:25:37.459Z,98185.06
2023-05-17T23:28:04.845Z,98173.72
2023-05-17T23:30:32.306Z,98188.19
2023-05-17T23:33:00.291Z,98180.81
2023-05-17T23:35:27.386Z,98183.03
2023-05-17T23:37:54.452Z,98176.66
2023-05-17T23:40:21.472Z,98178.56
2023-05-17T23:42:48.354Z,98177.63
2023-05-17T23:45:15.321Z,98178.00
2023-05-17T23:47:42.239Z,98172.25
2023-05-17T23:50:09.968Z,98176.81
2023-05-17T23:52:39.082Z,98169.00
2023-05-17T23:55:07.471Z,98172.66
2023-05-17T23:57:35.416Z,98180.75
